createdAt,value
2022-09-24T00:01:30.467Z,10.54
2022-09-24T00:04:01.235Z,10.49
2022-09-24T00:06:34.830Z,10.46
2022-09-24T00:09:02.721Z,10.45
2022-09-24T00:11:32.220Z,10.42
2022-09-24T00:14:02.268Z,10.38
2022-09-24T00:16:34.060Z,10.41
2022-09-24T00:19:03.712Z,10.40
2022-09-24T00:21:38.012Z,10.39
2022-09-24T00:24:08.801Z,10.40
2022-09-24T00:26:51.742Z,10.42
2022-09-24T00:29:24.549Z,10.38
2022-09-24T00:31:55.783Z,10.39
2022-09-24T00:34:24.353Z,10.39
2022-09-24T00:36:56.379Z,10.43
2022-09-24T00:39:24.442Z,10.42
2022-09-24T00:41:52.484Z,10.43
2022-09-24T00:44:55.020Z,10.38
2022-09-24T00:47:29.283Z,10.31
2022-09-24T00:50:06.270Z,10.26
2022-09-24T00:52:39.464Z,10.20
2022-09-24T00:55:11.372Z,10.14
2022-09-24T00:57:41.330Z,10.06
2022-09-24T01:00:10.914Z,9.98
2022-09-24T01:02:45.679Z,9.88
2022-09-24T01:05:13.829Z,9.82
2022-09-24T01:07:43.285Z,9.75
2022-09-24T01:10:11.649Z,9.69
2022-09-24T01:12:52.408Z,9.63
2022-09-24T01:15:29.041Z,9.50
2022-09-24T01:18:03.383Z,9.46
2022-09-24T01:24:12.248Z,9.16
2022-09-24T01:26:58.259Z,9.07
2022-09-24T01:29:47.407Z,8.97
2022-09-24T01:32:22.450Z,8.88
2022-09-24T01:34:56.658Z,8.76
2022-09-24T01:37:28.704Z,8.73
2022-09-24T01:39:59.407Z,8.69
2022-09-24T01:42:32.055Z,8.63
2022-09-24T01:45:02.738Z,8.56
2022-09-24T01:47:35.325Z,8.48
2022-09-24T01:50:05.788Z,8.40
2022-09-24T01:52:40.176Z,8.33
2022-09-24T01:55:11.284Z,8.28
2022-09-24T01:57:43.128Z,8.23
2022-09-24T02:00:14.824Z,8.23
2022-09-24T02:02:47.775Z,8.21
2022-09-24T02:05:24.118Z,8.15
2022-09-24T02:07:59.351Z,8.15
2022-09-24T02:10:31.803Z,8.02
2022-09-24T02:13:05.099Z,7.90
2022-09-24T02:15:38.269Z,7.86
2022-09-24T02:18:10.689Z,7.78
2022-09-24T02:20:43.766Z,7.77
2022-09-24T02:23:12.858Z,7.73
2022-09-24T02:25:45.185Z,7.66
2022-09-24T02:28:13.159Z,7.59
2022-09-24T02:30:48.454Z,7.58
2022-09-24T02:33:34.472Z,7.56
2022-09-24T02:36:05.599Z,7.54
2022-09-24T02:38:33.899Z,7.60
2022-09-24T02:41:04.872Z,7.58
2022-09-24T02:43:35.695Z,7.54
2022-09-24T02:46:08.913Z,7.54
2022-09-24T02:48:36.939Z,7.49
2022-09-24T02:51:07.695Z,7.47
2022-09-24T02:53:38.684Z,7.38
2022-09-24T02:56:08.373Z,7.32
2022-09-24T02:58:37.305Z,7.29
2022-09-24T03:01:09.250Z,7.27
2022-09-24T03:03:37.128Z,7.18
2022-09-24T03:06:05.277Z,7.19
2022-09-24T03:08:33.557Z,7.19
2022-09-24T03:11:04.109Z,7.23
2022-09-24T03:13:34.301Z,7.18
2022-09-24T03:16:05.068Z,7.16
2022-09-24T03:18:37.422Z,7.18
2022-09-24T03:21:09.378Z,7.19
2022-09-24T03:23:39.878Z,7.19
2022-09-24T03:26:10.615Z,7.25
2022-09-24T03:28:39.068Z,7.20
2022-09-24T03:31:06.400Z,7.03
2022-09-24T03:33:36.209Z,7.08
2022-09-24T03:36:08.058Z,7.12
2022-09-24T03:38:37.720Z,7.14
2022-09-24T03:41:09.966Z,7.16
2022-09-24T03:43:38.160Z,7.21
2022-09-24T03:46:09.464Z,7.19
2022-09-24T03:48:39.473Z,7.18
2022-09-24T03:51:10.006Z,7.14
2022-09-24T03:53:38.649Z,7.09
2022-09-24T03:56:07.895Z,7.18
2022-09-24T03:58:39.011Z,7.23
2022-09-24T04:01:07.586Z,7.25
2022-09-24T04:03:38.472Z,7.26
2022-09-24T04:06:08.592Z,7.27
2022-09-24T04:08:36.770Z,7.25
2022-09-24T04:11:07.656Z,7.28
2022-09-24T04:13:35.715Z,7.29
2022-09-24T04:16:04.633Z,7.26
2022-09-24T04:18:36.991Z,7.24
2022-09-24T04:21:08.751Z,7.22
2022-09-24T04:23:36.741Z,7.22
2022-09-24T04:26:07.230Z,7.20
2022-09-24T04:28:35.299Z,7.16
2022-09-24T04:31:03.500Z,7.09
2022-09-24T04:33:31.832Z,7.05
2022-09-24T04:35:59.901Z,7.00
2022-09-24T04:38:29.116Z,6.97
2022-09-24T04:41:06.351Z,7.02
2022-09-24T04:43:34.851Z,6.94
2022-09-24T04:46:03.627Z,6.87
2022-09-24T04:48:32.084Z,6.89
2022-09-24T04:51:03.540Z,6.89
2022-09-24T04:53:37.140Z,6.88
2022-09-24T04:56:05.797Z,6.86
2022-09-24T04:58:33.731Z,6.90
2022-09-24T05:01:04.116Z,6.94
2022-09-24T05:03:34.421Z,6.94
2022-09-24T05:06:05.584Z,6.96
2022-09-24T05:08:35.190Z,6.98
2022-09-24T05:11:03.521Z,7.01
2022-09-24T05:13:31.464Z,7.04
2022-09-24T05:16:01.201Z,7.08
2022-09-24T05:18:29.360Z,7.12
2022-09-24T05:20:57.683Z,7.19
2022-09-24T05:23:25.826Z,7.29
2022-09-24T05:26:12.493Z,7.41
2022-09-24T05:28:42.742Z,7.45
2022-09-24T05:31:14.343Z,7.47
2022-09-24T05:33:46.172Z,7.49
2022-09-24T05:36:14.648Z,7.52
2022-09-24T05:38:44.631Z,7.61
2022-09-24T05:41:14.384Z,7.71
2022-09-24T05:43:42.321Z,7.84
2022-09-24T05:46:10.739Z,7.97
2022-09-24T05:48:38.853Z,8.07
2022-09-24T05:51:07.080Z,8.17
2022-09-24T05:53:35.426Z,8.24
2022-09-24T05:56:03.633Z,8.31
2022-09-24T05:58:33.180Z,8.40
2022-09-24T06:01:02.012Z,8.48
2022-09-24T06:03:31.629Z,8.59
2022-09-24T06:06:02.041Z,8.65
2022-09-24T06:08:32.342Z,8.76
2022-09-24T06:11:01.109Z,8.86
2022-09-24T06:13:29.976Z,9.03
2022-09-24T06:16:06.187Z,9.15
2022-09-24T06:18:36.096Z,9.26
2022-09-24T06:24:39.797Z,9.51
2022-09-24T06:27:07.833Z,9.60
2022-09-24T06:29:36.108Z,9.74
2022-09-24T06:32:04.166Z,9.77
2022-09-24T06:34:32.387Z,9.84
2022-09-24T06:37:02.442Z,9.82
2022-09-24T06:39:30.637Z,9.76
2022-09-24T06:42:00.098Z,9.82
2022-09-24T06:44:35.658Z,9.90
2022-09-24T06:47:03.929Z,10.08
2022-09-24T06:49:34.292Z,10.16
2022-09-24T06:52:03.208Z,10.44
2022-09-24T06:54:31.603Z,10.59
2022-09-24T06:57:01.506Z,10.71
2022-09-24T06:59:29.733Z,10.89
2022-09-24T07:01:59.923Z,11.07
2022-09-24T07:04:30.794Z,11.23
2022-09-24T07:07:16.410Z,11.53
2022-09-24T07:09:44.839Z,11.63
2022-09-24T07:12:14.378Z,12.01
2022-09-24T07:14:42.752Z,12.43
2022-09-24T07:17:13.005Z,13.10
2022-09-24T07:19:42.179Z,13.50
2022-09-24T07:22:10.257Z,13.64
2022-09-24T07:24:39.034Z,13.99
2022-09-24T07:27:08.017Z,14.05
2022-09-24T07:29:38.251Z,14.18
2022-09-24T07:32:06.249Z,13.95
2022-09-24T07:34:34.987Z,13.50
2022-09-24T07:37:06.073Z,13.65
2022-09-24T07:39:34.367Z,13.94
2022-09-24T07:42:02.814Z,13.68
2022-09-24T07:44:30.711Z,13.73
2022-09-24T07:47:00.367Z,13.86
2022-09-24T07:49:32.686Z,13.82
2022-09-24T07:52:01.562Z,14.06
2022-09-24T07:54:31.616Z,14.25
2022-09-24T07:57:02.936Z,14.41
2022-09-24T07:59:32.550Z,14.52
2022-09-24T08:02:02.303Z,15.77
2022-09-24T08:04:32.791Z,15.38
2022-09-24T08:07:01.411Z,15.69
2022-09-24T08:09:29.461Z,16.29
2022-09-24T08:11:57.698Z,16.90
2022-09-24T08:14:28.102Z,17.04
2022-09-24T08:16:56.818Z,17.37
2022-09-24T08:19:28.264Z,17.82
2022-09-24T08:21:57.782Z,17.28
2022-09-24T08:24:25.822Z,16.46
2022-09-24T08:26:54.117Z,15.88
2022-09-24T08:29:25.007Z,16.17
2022-09-24T08:31:53.250Z,16.25
2022-09-24T08:34:23.662Z,16.02
2022-09-24T08:36:53.369Z,16.38
2022-09-24T08:39:21.319Z,16.06
2022-09-24T08:41:57.194Z,15.72
2022-09-24T08:44:49.452Z,15.69
2022-09-24T08:47:27.609Z,15.22
2022-09-24T08:50:10.019Z,14.61
2022-09-24T08:52:48.256Z,14.33
2022-09-24T08:55:21.491Z,14.52
2022-09-24T08:57:52.008Z,14.38
2022-09-24T09:00:20.499Z,14.54
2022-09-24T09:02:58.071Z,14.84
2022-09-24T09:05:48.594Z,15.03
2022-09-24T09:08:54.566Z,15.23
2022-09-24T09:11:25.458Z,15.71
2022-09-24T09:14:00.256Z,15.65
2022-09-24T09:16:42.531Z,15.95
2022-09-24T09:19:14.458Z,15.69
2022-09-24T09:21:45.057Z,16.00
2022-09-24T09:24:18.665Z,16.76
2022-09-24T09:26:50.345Z,17.06
2022-09-24T09:29:19.380Z,18.03
2022-09-24T09:31:56.883Z,18.68
2022-09-24T09:34:41.825Z,19.46
2022-09-24T09:37:26.153Z,20.79
2022-09-24T09:40:11.003Z,21.79
2022-09-24T09:42:41.995Z,22.30
2022-09-24T09:45:28.287Z,21.43
2022-09-24T09:47:58.717Z,21.03
2022-09-24T09:50:29.266Z,19.63
2022-09-24T09:52:57.517Z,18.60
2022-09-24T09:55:29.646Z,17.75
2022-09-24T09:58:12.080Z,18.12
2022-09-24T10:00:40.478Z,17.66
2022-09-24T10:03:23.399Z,18.06
2022-09-24T10:05:56.180Z,18.27
2022-09-24T10:08:26.077Z,18.05
2022-09-24T10:10:56.607Z,18.00
2022-09-24T10:13:25.554Z,17.96
2022-09-24T10:15:59.670Z,18.34
2022-09-24T10:18:33.203Z,18.13
2022-09-24T10:21:07.933Z,19.04
2022-09-24T10:23:38.707Z,18.50
2022-09-24T10:26:09.943Z,18.58
2022-09-24T10:29:00.477Z,18.98
2022-09-24T10:31:32.898Z,18.97
2022-09-24T10:34:02.755Z,19.47
2022-09-24T10:36:33.651Z,19.96
2022-09-24T10:39:13.730Z,20.38
2022-09-24T10:41:48.897Z,19.55
2022-09-24T10:44:17.829Z,19.83
2022-09-24T10:47:16.047Z,19.88
2022-09-24T10:50:01.094Z,20.10
2022-09-24T10:52:41.362Z,21.74
2022-09-24T10:55:21.853Z,22.99
2022-09-24T10:58:00.261Z,23.78
2022-09-24T11:00:38.522Z,25.47
2022-09-24T11:03:39.372Z,24.38
2022-09-24T11:06:20.839Z,23.92
2022-09-24T11:09:04.982Z,24.18
2022-09-24T11:11:47.089Z,22.53
2022-09-24T11:14:30.056Z,22.48
2022-09-24T11:17:11.725Z,22.22
2022-09-24T11:19:57.039Z,20.58
2022-09-24T11:25:49.806Z,19.90
2022-09-24T11:28:34.481Z,18.84
2022-09-24T11:31:13.485Z,18.65
2022-09-24T11:34:09.078Z,18.67
2022-09-24T11:36:58.965Z,18.74
2022-09-24T11:39:44.247Z,18.82
2022-09-24T11:42:22.764Z,18.98
2022-09-24T11:45:17.093Z,18.80
2022-09-24T11:48:03.101Z,18.65
2022-09-24T11:50:47.736Z,19.05
2022-09-24T11:53:27.768Z,19.03
2022-09-24T11:55:59.813Z,18.65
2022-09-24T11:58:36.273Z,18.58
2022-09-24T12:01:10.624Z,18.88
2022-09-24T12:03:45.417Z,18.96
2022-09-24T12:06:19.097Z,18.88
2022-09-24T12:08:53.327Z,19.66
2022-09-24T12:11:28.218Z,20.17
2022-09-24T12:14:04.177Z,20.61
2022-09-24T12:16:39.434Z,20.39
2022-09-24T12:19:17.886Z,20.08
2022-09-24T12:21:48.820Z,19.99
2022-09-24T12:24:27.234Z,20.05
2022-09-24T12:26:59.814Z,19.98
2022-09-24T12:30:10.474Z,20.58
2022-09-24T12:32:56.051Z,20.05
2022-09-24T12:35:37.970Z,20.02
2022-09-24T12:38:14.307Z,19.24
2022-09-24T12:41:23.665Z,19.72
2022-09-24T12:43:56.777Z,20.26
2022-09-24T12:46:28.090Z,19.95
2022-09-24T12:48:57.057Z,19.84
2022-09-24T12:51:25.709Z,20.36
2022-09-24T12:53:59.905Z,19.79
2022-09-24T12:56:31.197Z,20.21
2022-09-24T12:58:59.461Z,20.23
2022-09-24T13:01:31.545Z,19.69
2022-09-24T13:04:05.791Z,19.79
2022-09-24T13:06:36.103Z,19.52
2022-09-24T13:09:27.224Z,19.76
2022-09-24T13:12:03.569Z,19.61
2022-09-24T13:14:33.380Z,19.75
2022-09-24T13:17:08.392Z,19.93
2022-09-24T13:19:40.939Z,19.70
2022-09-24T13:22:22.829Z,19.62
2022-09-24T13:24:53.517Z,19.96
2022-09-24T13:27:24.677Z,20.44
2022-09-24T13:30:17.525Z,20.59
2022-09-24T13:32:53.497Z,20.86
2022-09-24T13:35:29.076Z,20.79
2022-09-24T13:38:07.729Z,20.76
2022-09-24T13:40:40.857Z,20.64
2022-09-24T13:43:15.947Z,20.23
2022-09-24T13:45:45.716Z,20.46
2022-09-24T13:48:31.137Z,20.18
2022-09-24T13:51:01.466Z,20.47
2022-09-24T13:53:34.008Z,20.10
2022-09-24T13:56:08.046Z,20.22
2022-09-24T13:58:38.154Z,20.08
2022-09-24T14:01:13.253Z,19.74
2022-09-24T14:03:52.331Z,19.41
2022-09-24T14:06:33.740Z,19.49
2022-09-24T14:09:02.406Z,19.35
2022-09-24T14:11:32.814Z,19.25
2022-09-24T14:14:11.483Z,19.23
2022-09-24T14:16:39.533Z,19.41
2022-09-24T14:19:16.886Z,19.48
2022-09-24T14:21:49.181Z,19.73
2022-09-24T14:24:24.267Z,19.56
2022-09-24T14:26:57.242Z,19.29
2022-09-24T14:29:28.946Z,19.30
2022-09-24T14:32:00.999Z,19.64
2022-09-24T14:34:37.932Z,19.78
2022-09-24T14:37:11.638Z,19.61
2022-09-24T14:39:44.060Z,19.37
2022-09-24T14:42:24.477Z,19.24
2022-09-24T14:44:57.704Z,18.84
2022-09-24T14:47:28.315Z,18.69
2022-09-24T14:49:57.974Z,18.75
2022-09-24T14:52:31.913Z,18.72
2022-09-24T14:55:18.155Z,18.93
2022-09-24T14:57:49.029Z,18.92
2022-09-24T15:00:24.005Z,18.95
2022-09-24T15:02:57.767Z,18.96
2022-09-24T15:05:30.161Z,18.91
2022-09-24T15:08:24.597Z,18.71
2022-09-24T15:10:57.695Z,18.68
2022-09-24T15:13:28.011Z,18.69
2022-09-24T15:16:07.793Z,18.73
2022-09-24T15:18:36.457Z,18.60
2022-09-24T15:21:08.346Z,18.48
2022-09-24T15:23:36.886Z,18.31
2022-09-24T15:26:05.553Z,18.20
2022-09-24T15:28:33.938Z,18.15
2022-09-24T15:31:04.455Z,18.00
2022-09-24T15:33:35.924Z,17.93
2022-09-24T15:36:05.748Z,17.84
2022-09-24T15:38:33.989Z,17.76
2022-09-24T15:41:02.139Z,17.76
2022-09-24T15:43:30.207Z,17.73
2022-09-24T15:46:01.864Z,17.87
2022-09-24T15:48:30.290Z,17.83
2022-09-24T15:50:58.792Z,17.67
2022-09-24T15:53:28.382Z,17.72
2022-09-24T15:55:59.214Z,17.66
2022-09-24T15:58:30.025Z,17.51
2022-09-24T16:00:58.255Z,17.33
2022-09-24T16:03:28.242Z,17.29
2022-09-24T16:05:57.577Z,17.40
2022-09-24T16:08:25.665Z,17.39
2022-09-24T16:10:55.371Z,17.42
2022-09-24T16:13:26.308Z,17.49
2022-09-24T16:15:59.545Z,17.49
2022-09-24T16:18:29.892Z,17.41
2022-09-24T16:20:57.927Z,17.32
2022-09-24T16:26:39.671Z,17.19
2022-09-24T16:29:10.048Z,17.16
2022-09-24T16:31:38.079Z,17.09
2022-09-24T16:34:08.550Z,17.01
2022-09-24T16:36:36.703Z,16.89
2022-09-24T16:39:05.667Z,16.75
2022-09-24T16:41:34.613Z,16.61
2022-09-24T16:44:05.028Z,16.54
2022-09-24T16:46:33.186Z,16.50
2022-09-24T16:49:01.224Z,16.41
2022-09-24T16:51:29.755Z,16.32
2022-09-24T16:54:00.137Z,16.26
2022-09-24T16:56:29.018Z,16.10
2022-09-24T16:59:00.141Z,15.98
2022-09-24T17:01:29.737Z,15.94
2022-09-24T17:04:00.874Z,15.88
2022-09-24T17:06:34.050Z,15.74
2022-09-24T17:09:22.712Z,15.61
2022-09-24T17:11:56.808Z,15.49
2022-09-24T17:14:26.970Z,15.33
2022-09-24T17:16:59.097Z,15.30
2022-09-24T17:19:27.293Z,15.25
2022-09-24T17:21:57.509Z,15.20
2022-09-24T17:24:25.817Z,15.08
2022-09-24T17:26:55.057Z,14.96
2022-09-24T17:29:30.487Z,14.85
2022-09-24T17:32:01.214Z,14.75
2022-09-24T17:34:29.533Z,14.63
2022-09-24T17:36:59.534Z,14.55
2022-09-24T17:39:28.084Z,14.48
2022-09-24T17:41:56.239Z,14.43
2022-09-24T17:44:24.127Z,14.29
2022-09-24T17:46:52.778Z,14.24
2022-09-24T17:49:24.643Z,14.17
2022-09-24T17:51:54.170Z,14.13
2022-09-24T17:54:26.770Z,14.07
2022-09-24T17:56:57.074Z,13.99
2022-09-24T17:59:26.891Z,13.95
2022-09-24T18:01:55.346Z,13.95
2022-09-24T18:04:28.253Z,13.98
2022-09-24T18:06:56.247Z,13.97
2022-09-24T18:09:24.444Z,13.95
2022-09-24T18:11:53.622Z,13.88
2022-09-24T18:14:23.704Z,13.86
2022-09-24T18:16:52.378Z,13.88
2022-09-24T18:19:20.594Z,13.84
2022-09-24T18:21:50.357Z,13.81
2022-09-24T18:24:18.839Z,13.80
2022-09-24T18:26:51.767Z,13.72
2022-09-24T18:29:21.059Z,13.66
2022-09-24T18:31:49.423Z,13.60
2022-09-24T18:34:17.584Z,13.59
2022-09-24T18:36:48.102Z,13.57
2022-09-24T18:39:23.720Z,13.60
2022-09-24T18:41:55.465Z,13.59
2022-09-24T18:44:23.646Z,13.58
2022-09-24T18:46:51.887Z,13.57
2022-09-24T18:49:24.041Z,13.55
2022-09-24T18:51:52.595Z,13.53
2022-09-24T18:54:22.412Z,13.53
2022-09-24T18:56:50.792Z,13.53
2022-09-24T18:59:20.408Z,13.57
2022-09-24T19:01:52.086Z,13.56
2022-09-24T19:04:20.296Z,13.57
2022-09-24T19:06:49.946Z,13.61
2022-09-24T19:09:20.133Z,13.67
2022-09-24T19:11:52.507Z,13.72
2022-09-24T19:14:23.561Z,13.78
2022-09-24T19:16:56.463Z,13.81
2022-09-24T19:19:26.761Z,13.80
2022-09-24T19:21:55.325Z,13.83
2022-09-24T19:24:23.313Z,13.84
2022-09-24T19:26:54.110Z,13.83
2022-09-24T19:29:22.133Z,13.82
2022-09-24T19:31:52.517Z,13.85
2022-09-24T19:34:21.444Z,13.84
2022-09-24T19:36:52.327Z,13.89
2022-09-24T19:39:20.648Z,13.84
2022-09-24T19:41:52.947Z,13.83
2022-09-24T19:44:24.883Z,13.80
2022-09-24T19:46:52.931Z,13.80
2022-09-24T19:49:21.360Z,13.80
2022-09-24T19:51:49.577Z,13.77
2022-09-24T19:54:17.757Z,13.74
2022-09-24T19:56:45.834Z,13.70
2022-09-24T19:59:14.702Z,13.64
2022-09-24T20:01:44.744Z,13.53
2022-09-24T20:04:14.078Z,13.35
2022-09-24T20:06:45.100Z,13.22
2022-09-24T20:09:13.342Z,13.10
2022-09-24T20:11:49.806Z,13.02
2022-09-24T20:14:21.510Z,12.94
2022-09-24T20:16:51.172Z,12.79
2022-09-24T20:19:22.109Z,12.57
2022-09-24T20:21:52.518Z,12.31
2022-09-24T20:24:21.008Z,12.08
2022-09-24T20:27:06.485Z,11.99
2022-09-24T20:29:35.006Z,11.88
2022-09-24T20:32:04.511Z,11.82
2022-09-24T20:34:34.444Z,11.74
2022-09-24T20:37:04.246Z,11.72
2022-09-24T20:39:33.196Z,11.75
2022-09-24T20:42:03.884Z,11.71
2022-09-24T20:44:32.735Z,11.72
2022-09-24T20:47:01.037Z,11.70
2022-09-24T20:49:30.878Z,11.78
2022-09-24T20:52:05.590Z,11.75
2022-09-24T20:54:34.701Z,11.74
2022-09-24T20:57:02.817Z,11.79
2022-09-24T20:59:30.985Z,11.81
2022-09-24T21:02:02.692Z,11.80
2022-09-24T21:04:36.478Z,11.75
2022-09-24T21:07:04.897Z,11.75
2022-09-24T21:09:33.193Z,11.76
2022-09-24T21:12:03.467Z,11.75
2022-09-24T21:14:32.890Z,11.63
2022-09-24T21:17:01.156Z,11.78
2022-09-24T21:19:29.558Z,11.80
2022-09-24T21:22:01.779Z,11.81
2022-09-24T21:27:39.566Z,11.70
2022-09-24T21:30:08.793Z,11.72
2022-09-24T21:32:37.107Z,11.81
2022-09-24T21:35:07.289Z,11.81
2022-09-24T21:37:38.772Z,11.83
2022-09-24T21:40:10.482Z,11.79
2022-09-24T21:42:40.351Z,11.77
2022-09-24T21:45:12.974Z,11.78
2022-09-24T21:47:45.620Z,11.78
2022-09-24T21:50:14.410Z,11.75
2022-09-24T21:52:44.835Z,11.77
2022-09-24T21:55:15.588Z,11.77
2022-09-24T21:57:47.289Z,11.75
2022-09-24T22:00:16.153Z,11.71
2022-09-24T22:02:45.140Z,11.69
2022-09-24T22:05:15.153Z,11.70
2022-09-24T22:07:44.353Z,11.70
2022-09-24T22:10:12.363Z,11.71
2022-09-24T22:12:40.778Z,11.68
2022-09-24T22:15:12.722Z,11.70
2022-09-24T22:17:40.706Z,11.70
2022-09-24T22:20:10.109Z,11.67
2022-09-24T22:22:40.620Z,11.66
2022-09-24T22:25:09.696Z,11.67
2022-09-24T22:27:38.099Z,11.66
2022-09-24T22:30:09.785Z,11.65
2022-09-24T22:32:40.115Z,11.62
2022-09-24T22:35:35.737Z,11.63
2022-09-24T22:38:06.943Z,11.64
2022-09-24T22:40:37.703Z,11.61
2022-09-24T22:43:05.974Z,11.61
2022-09-24T22:45:34.585Z,11.62
2022-09-24T22:48:04.621Z,11.62
2022-09-24T22:50:36.102Z,11.60
2022-09-24T22:53:06.653Z,11.62
2022-09-24T22:55:34.850Z,11.62
2022-09-24T22:58:02.880Z,11.61
2022-09-24T23:00:31.149Z,11.63
2022-09-24T23:03:00.035Z,11.66
2022-09-24T23:05:32.323Z,11.69
2022-09-24T23:08:00.632Z,11.70
2022-09-24T23:10:30.016Z,11.68
2022-09-24T23:12:58.537Z,11.68
2022-09-24T23:15:29.851Z,11.64
2022-09-24T23:18:00.056Z,11.65
2022-09-24T23:20:28.569Z,11.63
2022-09-24T23:22:59.780Z,11.61
2022-09-24T23:25:28.299Z,11.65
2022-09-24T23:27:56.305Z,11.64
2022-09-24T23:30:26.916Z,11.59
2022-09-24T23:32:55.141Z,11.58
2022-09-24T23:35:25.584Z,11.58
2022-09-24T23:37:53.696Z,11.59
2022-09-24T23:40:23.356Z,11.58
2022-09-24T23:42:52.147Z,11.59
2022-09-24T23:45:20.222Z,11.57
2022-09-24T23:47:48.758Z,11.55
2022-09-24T23:50:16.866Z,11.52
2022-09-24T23:52:45.354Z,11.51
2022-09-24T23:55:13.389Z,11.52
2022-09-24T23:57:42.897Z,11.52
